Terminal Aerodrome Forecast
Issued by NWS Chicago, IL

Home | Current Version | Previous Version | Text Only | Print | Product List | Glossary On
Versions: 1 2 3 4 5 6 7 8 9 10 11 12 13 14 15 16 17 18 19 20 21 22 23 24 25 26 27 28 29 30 31 32 33 34 35
000
FTUS43 KLOT 290900 AAA
TAFRFD
TAF AMD
KRFD 290912Z 2909/3006 16007KT 5SM BR SCT150
     FM291100 19009KT 6SM BR SCT020 BKN200
     FM291500 21013G21KT P6SM SCT015 BKN180
     FM292100 21014G23KT P6SM SCT200
     FM300200 21014KT P6SM SCT200=

USA.gov is the U.S. government's official web portal to all federal, state and local government web resources and services.